createdAt,value
2017-05-26T00:00:22.030Z,62.3
2017-05-26T00:01:32.380Z,62.4
2017-05-26T00:02:42.725Z,62.87
2017-05-26T00:03:53.097Z,62.49
2017-05-26T00:05:03.120Z,62.68
2017-05-26T00:06:13.504Z,62.3
2017-05-26T00:07:23.542Z,62.59
2017-05-26T00:08:33.886Z,62.4
2017-05-26T00:09:43.913Z,62.49
2017-05-26T00:10:53.953Z,62.4
2017-05-26T00:12:04.321Z,62.59
2017-05-26T00:13:14.381Z,62.3
2017-05-26T00:14:24.724Z,62.37
2017-05-26T00:15:34.757Z,62.4
2017-05-26T00:16:44.802Z,62.4
2017-05-26T00:17:54.896Z,62.4
2017-05-26T00:19:04.938Z,62.37
2017-05-26T00:20:15.291Z,62.65
2017-05-26T00:21:25.628Z,62.55
2017-05-26T00:22:36.047Z,62.55
2017-05-26T00:23:45.774Z,62.37
2017-05-26T00:24:55.827Z,62.37
2017-05-26T00:26:06.192Z,62.37
2017-05-26T00:27:15.900Z,62.37
2017-05-26T00:28:26.250Z,62.4
2017-05-26T00:29:36.333Z,62.59
2017-05-26T00:30:46.675Z,62.49
2017-05-26T00:31:56.715Z,62.74
2017-05-26T00:33:07.083Z,62.55
2017-05-26T00:34:17.434Z,62.46
2017-05-26T00:35:27.874Z,62.55
2017-05-26T00:36:37.969Z,62.65
2017-05-26T00:37:48.310Z,62.46
2017-05-26T00:38:58.353Z,62.46
2017-05-26T00:40:08.754Z,62.55
2017-05-26T00:41:18.795Z,62.74
2017-05-26T00:42:28.826Z,62.74
2017-05-26T00:43:39.172Z,62.74
2017-05-26T00:44:49.527Z,62.74
2017-05-26T00:45:59.878Z,62.74
2017-05-26T00:47:10.239Z,62.46
2017-05-26T00:48:19.965Z,62.17
2017-05-26T00:49:29.984Z,62.27
2017-05-26T00:50:40.354Z,62.17
2017-05-26T00:51:50.748Z,62.17
2017-05-26T00:53:00.790Z,62.08
2017-05-26T00:54:11.139Z,62.08
2017-05-26T00:55:20.861Z,61.98
2017-05-26T00:56:30.957Z,61.98
2017-05-26T00:57:40.674Z,61.88
2017-05-26T00:58:51.273Z,62.27
2017-05-26T01:00:00.989Z,61.69
2017-05-26T01:01:11.332Z,62.27
2017-05-26T01:02:21.048Z,61.79
2017-05-26T01:03:31.413Z,61.79
2017-05-26T01:04:41.752Z,61.98
2017-05-26T01:05:52.093Z,61.88
2017-05-26T01:07:02.444Z,62.11
2017-05-26T01:08:12.169Z,61.98
2017-05-26T01:09:22.513Z,62.08
2017-05-26T01:10:32.276Z,62.4
2017-05-26T01:11:42.632Z,62.3
2017-05-26T01:12:52.974Z,62.2
2017-05-26T01:14:03.322Z,62.2
2017-05-26T01:15:13.698Z,62.4
2017-05-26T01:16:23.734Z,62.4
2017-05-26T01:17:34.075Z,62.4
2017-05-26T01:18:44.419Z,61.82
2017-05-26T01:19:54.766Z,62.01
2017-05-26T01:21:05.112Z,61.82
2017-05-26T01:22:15.443Z,61.82
2017-05-26T01:23:25.788Z,62.3
2017-05-26T01:24:36.146Z,61.91
2017-05-26T01:25:46.186Z,62.01
2017-05-26T01:26:56.533Z,62.4
2017-05-26T01:28:06.934Z,62.3
2017-05-26T01:29:17.488Z,62.4
2017-05-26T01:30:27.834Z,62.43
2017-05-26T01:31:38.181Z,62.23
2017-05-26T01:32:48.533Z,62.14
2017-05-26T01:33:58.894Z,62.23
2017-05-26T01:35:09.226Z,62.23
2017-05-26T01:36:18.635Z,62.23
2017-05-26T01:37:28.722Z,62.23
2017-05-26T01:38:39.061Z,62.23
2017-05-26T01:39:49.150Z,62.23
2017-05-26T01:40:59.503Z,61.94
2017-05-26T01:42:09.541Z,62.26
2017-05-26T01:43:19.577Z,62.23
2017-05-26T01:44:29.920Z,62.07
2017-05-26T01:45:40.022Z,62.26
2017-05-26T01:46:50.067Z,62.07
2017-05-26T01:48:00.422Z,61.88
2017-05-26T01:49:10.778Z,62.07
2017-05-26T01:50:21.128Z,61.88
2017-05-26T01:51:31.175Z,62.17
2017-05-26T01:52:41.513Z,62.36
2017-05-26T01:53:51.546Z,62.17
2017-05-26T01:55:01.896Z,62.17
2017-05-26T01:56:11.928Z,62.36
2017-05-26T01:57:21.965Z,62.26
2017-05-26T01:58:32.306Z,61.98
2017-05-26T01:59:42.654Z,61.98
2017-05-26T02:00:52.700Z,62.26
2017-05-26T02:02:03.047Z,62.36
2017-05-26T02:03:13.394Z,61.88
2017-05-26T02:04:23.429Z,62.26
2017-05-26T02:05:33.778Z,62.17
2017-05-26T02:06:43.848Z,62.1
2017-05-26T02:07:54.186Z,62.39
2017-05-26T02:09:04.270Z,62.26
2017-05-26T02:10:14.311Z,62.36
2017-05-26T02:11:24.656Z,62.1
2017-05-26T02:12:34.995Z,62.84
2017-05-26T02:13:45.356Z,62.87
2017-05-26T02:14:55.449Z,62.77
2017-05-26T02:16:05.795Z,62.87
2017-05-26T02:17:16.150Z,62.87
2017-05-26T02:18:26.487Z,62.87
2017-05-26T02:19:36.828Z,62.96
2017-05-26T02:20:46.873Z,62.59
2017-05-26T02:21:56.915Z,62.87
2017-05-26T02:23:07.261Z,62.68
2017-05-26T02:24:17.601Z,62.49
2017-05-26T02:25:27.990Z,62.77
2017-05-26T02:26:38.065Z,62.77
2017-05-26T02:27:48.410Z,62.68
2017-05-26T02:28:58.760Z,62.68
2017-05-26T02:30:08.790Z,62.68
2017-05-26T02:31:18.826Z,62.87
2017-05-26T02:32:29.213Z,62.49
2017-05-26T02:33:39.248Z,62.59
2017-05-26T02:34:49.599Z,62.39
2017-05-26T02:35:59.629Z,62.49
2017-05-26T02:37:09.665Z,63.06
2017-05-26T02:38:20.026Z,62.96
2017-05-26T02:39:30.376Z,63.06
2017-05-26T02:40:40.761Z,63.06
2017-05-26T02:41:50.493Z,62.96
2017-05-26T02:43:00.843Z,63.06
2017-05-26T02:44:11.181Z,62.96
2017-05-26T02:45:21.530Z,63.06
2017-05-26T02:46:31.556Z,63.06
2017-05-26T02:47:41.903Z,63.16
2017-05-26T02:48:52.253Z,62.96
2017-05-26T02:50:02.345Z,63.16
2017-05-26T02:51:12.377Z,63.26
2017-05-26T02:52:22.785Z,63.26
2017-05-26T02:53:32.188Z,62.96
2017-05-26T02:54:42.531Z,62.96
2017-05-26T02:55:52.878Z,62.87
2017-05-26T02:57:03.223Z,62.96
2017-05-26T02:58:13.257Z,63.26
2017-05-26T02:59:23.614Z,62.96
2017-05-26T03:00:34.008Z,63.16
2017-05-26T03:01:44.358Z,63.26
2017-05-26T03:33:00.001Z,60.55
2017-05-26T03:34:10.332Z,61.13
2017-05-26T03:35:20.350Z,61.89
2017-05-26T03:36:30.687Z,61.89
2017-05-26T03:37:41.014Z,62.75
2017-05-26T03:38:51.353Z,63.26
2017-05-26T03:40:01.709Z,63.16
2017-05-26T03:41:11.739Z,63.07
2017-05-26T03:42:22.081Z,62.9
2017-05-26T03:43:32.425Z,63.1
2017-05-26T03:44:42.778Z,63.13
2017-05-26T03:45:53.139Z,63.03
2017-05-26T03:47:03.488Z,63.16
2017-05-26T03:48:13.515Z,63.06
2017-05-26T03:49:23.886Z,63.16
2017-05-26T03:50:34.281Z,63.39
2017-05-26T03:51:44.317Z,62.81
2017-05-26T03:52:54.032Z,63.22
2017-05-26T03:54:04.047Z,63.13
2017-05-26T03:55:14.083Z,63.13
2017-05-26T03:56:24.477Z,62.68
2017-05-26T03:57:34.529Z,62.87
2017-05-26T03:58:44.866Z,62.68
2017-05-26T03:59:55.216Z,62.49
2017-05-26T04:01:05.261Z,62.33
2017-05-26T04:02:15.299Z,62.04
2017-05-26T04:03:25.651Z,62.33
2017-05-26T04:04:36.007Z,62.04
2017-05-26T04:05:46.049Z,62.23
2017-05-26T04:06:56.391Z,62.26
2017-05-26T04:08:06.519Z,62.36
2017-05-26T04:09:16.925Z,62.26
2017-05-26T04:10:27.276Z,62.26
2017-05-26T04:11:37.622Z,61.98
2017-05-26T04:12:47.969Z,62.26
2017-05-26T04:13:58.315Z,62.26
2017-05-26T04:15:08.349Z,62.26
2017-05-26T04:16:18.707Z,62.45
2017-05-26T04:17:28.738Z,62.1
2017-05-26T04:18:38.771Z,62.1
2017-05-26T04:19:49.168Z,60.88
2017-05-26T04:20:59.511Z,61.01
2017-05-26T04:22:09.859Z,60.53
2017-05-26T04:23:20.205Z,60.01
2017-05-26T04:24:30.653Z,59.34
2017-05-26T04:25:41.040Z,59.97
2017-05-26T04:26:51.080Z,60.24
2017-05-26T04:28:01.426Z,60.72
2017-05-26T04:29:11.458Z,61
2017-05-26T04:30:21.797Z,60.91
2017-05-26T04:31:31.569Z,60.33
2017-05-26T04:32:41.292Z,60.65
2017-05-26T04:33:51.647Z,60.75
2017-05-26T04:35:01.993Z,60.97
2017-05-26T04:36:12.337Z,61.13
2017-05-26T04:37:22.380Z,60.42
2017-05-26T04:38:32.724Z,61.07
2017-05-26T04:39:43.086Z,61.71
2017-05-26T04:40:53.134Z,62.16
2017-05-26T04:42:03.485Z,62.16
2017-05-26T04:43:13.843Z,60.52
2017-05-26T04:44:24.197Z,60.55
2017-05-26T04:45:34.550Z,57.56
2017-05-26T04:46:44.895Z,56.45
2017-05-26T04:47:55.240Z,55.85
2017-05-26T04:49:05.335Z,55.62
2017-05-26T04:50:15.373Z,55.08
2017-05-26T04:51:25.390Z,54.82
2017-05-26T04:52:35.736Z,54.68
2017-05-26T04:53:45.769Z,54.8
2017-05-26T04:54:56.159Z,54.93
2017-05-26T04:56:06.524Z,54.76
2017-05-26T04:57:16.877Z,54.5
2017-05-26T04:58:27.223Z,54.62
2017-05-26T04:59:37.244Z,54.72
2017-05-26T05:00:47.642Z,54.75
2017-05-26T05:01:57.995Z,54.94
2017-05-26T05:03:08.362Z,55.16
2017-05-26T05:04:18.406Z,55.36
2017-05-26T05:05:28.778Z,55.46
2017-05-26T05:06:39.187Z,55.75
2017-05-26T05:07:49.233Z,55.55
2017-05-26T05:08:59.290Z,55.94
2017-05-26T05:10:09.352Z,58.18
2017-05-26T05:11:19.390Z,60.96
2017-05-26T05:12:29.742Z,59.77
2017-05-26T05:13:39.776Z,58.67
2017-05-26T05:14:50.345Z,57.75
2017-05-26T05:16:00.390Z,57.03
2017-05-26T05:17:10.743Z,57.06
2017-05-26T05:18:21.101Z,56.96
2017-05-26T05:19:31.469Z,56.5
2017-05-26T05:20:41.823Z,56.79
2017-05-26T05:21:52.162Z,56.3
2017-05-26T05:23:02.195Z,55.94
2017-05-26T05:24:12.292Z,56.14
2017-05-26T05:25:22.330Z,55.94
2017-05-26T05:26:32.682Z,56.26
2017-05-26T05:27:42.705Z,56.23
2017-05-26T05:28:52.744Z,56.43
2017-05-26T05:30:03.197Z,56.16
2017-05-26T05:31:13.558Z,55.97
2017-05-26T05:32:23.913Z,56.07
2017-05-26T05:33:34.267Z,56.16
2017-05-26T05:34:44.625Z,55.97
2017-05-26T05:35:54.986Z,55.97
2017-05-26T05:37:05.346Z,55.87
2017-05-26T05:38:15.694Z,55.77
2017-05-26T05:39:25.431Z,56.23
2017-05-26T05:40:35.798Z,56.14
2017-05-26T05:41:45.946Z,56.62
2017-05-26T05:42:56.316Z,56.33
2017-05-26T05:44:06.347Z,56.4
2017-05-26T05:45:16.066Z,56.5
2017-05-26T05:46:26.421Z,56.6
2017-05-26T05:47:36.838Z,57.09
2017-05-26T05:48:46.887Z,56.76
2017-05-26T05:49:57.236Z,57.15
2017-05-26T05:51:07.275Z,57.35
2017-05-26T05:52:17.310Z,57.32
2017-05-26T05:53:27.336Z,57.61
2017-05-26T05:54:37.694Z,57.71
2017-05-26T05:55:47.726Z,57.87
2017-05-26T05:56:58.084Z,57.87
2017-05-26T05:58:08.438Z,58.26
2017-05-26T05:59:18.207Z,58.04
2017-05-26T06:00:28.573Z,58.33
2017-05-26T06:01:37.995Z,58.23
2017-05-26T06:02:48.337Z,58.21
2017-05-26T06:03:58.693Z,58.21
2017-05-26T06:05:08.750Z,58.21
2017-05-26T06:06:19.102Z,58.21
2017-05-26T06:07:29.137Z,58.21
2017-05-26T06:08:39.499Z,58.08
2017-05-26T06:09:49.848Z,58.57
2017-05-26T06:11:00.203Z,58.08
2017-05-26T06:12:10.597Z,58.18
2017-05-26T06:13:21.149Z,59.61
2017-05-26T06:14:31.186Z,60.81
2017-05-26T06:15:40.916Z,61.14
2017-05-26T06:16:50.984Z,62.37
2017-05-26T06:18:01.332Z,62.4
2017-05-26T06:19:11.370Z,62.4
2017-05-26T06:20:21.723Z,62.11
2017-05-26T06:21:32.080Z,61.15
2017-05-26T06:22:42.485Z,60.75
2017-05-26T06:23:52.833Z,59.53
2017-05-26T06:25:03.179Z,59.07
2017-05-26T06:26:13.767Z,58.69
2017-05-26T06:27:24.100Z,58.62
2017-05-26T06:28:34.507Z,58.52
2017-05-26T06:29:44.861Z,58.62
2017-05-26T06:30:55.209Z,58.81
2017-05-26T06:32:05.250Z,58.72
2017-05-26T06:33:15.610Z,59.1
2017-05-26T06:34:25.703Z,59.1
2017-05-26T06:35:36.052Z,59.2
2017-05-26T06:36:46.400Z,59.2
2017-05-26T06:37:56.754Z,59.49
2017-05-26T06:39:07.111Z,59.97
2017-05-26T06:40:17.206Z,59.69
2017-05-26T06:41:27.246Z,60.07
2017-05-26T06:42:37.276Z,60.27
2017-05-26T06:43:47.019Z,60.33
2017-05-26T06:44:57.381Z,60.82
2017-05-26T06:46:07.460Z,60.82
2017-05-26T06:47:17.488Z,60.62
2017-05-26T06:48:27.848Z,60.62
2017-05-26T06:49:37.888Z,60.69
2017-05-26T06:50:48.250Z,60.98
2017-05-26T06:51:58.297Z,60.59
2017-05-26T06:53:08.631Z,60.98
2017-05-26T06:54:18.980Z,61.33
2017-05-26T06:55:29.017Z,61.24
2017-05-26T06:56:39.059Z,61.24
2017-05-26T06:57:49.454Z,61.24
2017-05-26T06:58:59.792Z,61.24
2017-05-26T07:00:09.834Z,61.24
2017-05-26T07:01:20.180Z,61.24
2017-05-26T07:02:30.533Z,61.21
2017-05-26T07:03:40.929Z,60.92
2017-05-26T07:04:51.286Z,61.11
2017-05-26T07:06:01.635Z,61.11
2017-05-26T07:07:11.981Z,61.11
2017-05-26T07:08:22.015Z,60.95
2017-05-26T07:09:32.113Z,60.85
2017-05-26T07:10:42.469Z,61.05
2017-05-26T07:11:52.832Z,60.57
2017-05-26T07:13:03.197Z,60.63
2017-05-26T07:14:13.229Z,60.63
2017-05-26T07:15:23.638Z,60.63
2017-05-26T07:16:34.002Z,60.24
2017-05-26T07:17:44.387Z,60.72
2017-05-26T07:18:54.761Z,60.44
2017-05-26T07:20:05.115Z,60.37
2017-05-26T07:21:15.466Z,60.85
2017-05-26T07:22:25.837Z,60.27
2017-05-26T07:23:36.205Z,60.27
2017-05-26T07:24:46.586Z,60.4
2017-05-26T07:25:56.989Z,60.01
2017-05-26T07:27:07.406Z,59.66
2017-05-26T07:28:17.762Z,59.56
2017-05-26T07:29:28.109Z,58.91
2017-05-26T07:30:38.470Z,58.26
2017-05-26T07:31:48.811Z,58.39
2017-05-26T07:32:59.160Z,57.54
2017-05-26T07:34:09.210Z,57.76
2017-05-26T07:35:18.932Z,57.31
2017-05-26T07:36:29.282Z,56.85
2017-05-26T07:37:39.316Z,56.87
2017-05-26T07:38:49.075Z,57.17
2017-05-26T07:39:59.430Z,57.07
2017-05-26T07:41:09.803Z,57.97
2017-05-26T07:42:20.175Z,57.68
2017-05-26T07:43:30.542Z,57.87
2017-05-26T07:44:40.958Z,57.87
2017-05-26T07:45:51.329Z,58.62
2017-05-26T07:47:01.708Z,59.59
2017-05-26T07:48:12.067Z,59.86
2017-05-26T07:49:22.433Z,60.22
2017-05-26T07:50:32.846Z,61.16
2017-05-26T07:51:42.572Z,60.84
2017-05-26T07:52:52.320Z,61.1
2017-05-26T07:54:02.375Z,61.65
2017-05-26T07:55:12.720Z,61.14
2017-05-26T07:56:23.125Z,61.24
2017-05-26T07:57:33.471Z,60.85
2017-05-26T07:58:43.516Z,60.75
2017-05-26T07:59:53.886Z,61.24
2017-05-26T08:01:04.258Z,60.68
2017-05-26T08:02:14.704Z,60.88
2017-05-26T08:03:24.745Z,60.13
2017-05-26T08:04:35.096Z,59.64
2017-05-26T08:05:45.140Z,59
2017-05-26T08:06:55.536Z,58.61
2017-05-26T08:08:05.920Z,58.54
2017-05-26T08:09:16.294Z,58.18
2017-05-26T08:10:26.034Z,58.67
2017-05-26T08:11:36.384Z,59.25
2017-05-26T08:12:46.734Z,59.9
2017-05-26T08:13:57.155Z,60.58
2017-05-26T08:15:07.512Z,60.91
2017-05-26T08:16:17.573Z,60.97
2017-05-26T08:17:28.059Z,61.26
2017-05-26T08:18:38.429Z,61.17
2017-05-26T08:19:48.851Z,60.55
2017-05-26T08:20:58.895Z,60.39
2017-05-26T08:22:09.267Z,59.61
2017-05-26T08:23:19.635Z,60.13
2017-05-26T08:24:29.698Z,59.64
2017-05-26T08:25:39.792Z,59.64
2017-05-26T08:26:50.150Z,59.77
2017-05-26T08:28:00.187Z,60.06
2017-05-26T08:29:09.924Z,59.38
2017-05-26T08:30:19.968Z,59.31
2017-05-26T08:31:30.317Z,59.22
2017-05-26T08:32:40.376Z,58.93
2017-05-26T08:33:50.405Z,58.86
2017-05-26T08:35:00.772Z,58.47
2017-05-26T08:36:11.127Z,58.4
2017-05-26T08:37:21.485Z,58.31
2017-05-26T08:38:31.852Z,58.59
2017-05-26T08:39:42.213Z,58.14
2017-05-26T08:40:52.572Z,57.81
2017-05-26T08:42:02.938Z,58.17
2017-05-26T08:43:13.349Z,58.49
2017-05-26T08:44:23.705Z,58.75
2017-05-26T08:45:34.053Z,59.82
2017-05-26T08:46:44.123Z,61.22
2017-05-26T08:47:54.182Z,61.35
2017-05-26T08:49:04.833Z,61.07
2017-05-26T08:50:15.185Z,61.32
2017-05-26T08:51:25.621Z,61
2017-05-26T08:52:35.969Z,61.04
2017-05-26T08:53:46.330Z,61.32
2017-05-26T08:54:56.376Z,61
2017-05-26T08:56:06.739Z,60.84
2017-05-26T08:57:16.795Z,60.52
2017-05-26T08:58:26.895Z,61.04
2017-05-26T08:59:37.279Z,61.04
2017-05-26T09:00:47.721Z,60.45
2017-05-26T09:01:58.086Z,60.45
2017-05-26T09:03:08.438Z,60.16
2017-05-26T09:04:18.820Z,59.77
2017-05-26T09:05:28.560Z,59.9
2017-05-26T09:06:38.952Z,59.7
2017-05-26T09:07:49.316Z,60.02
2017-05-26T09:08:59.369Z,59.15
2017-05-26T09:10:09.417Z,58.98
2017-05-26T09:11:19.770Z,58.4
2017-05-26T09:12:30.190Z,58.33
2017-05-26T09:13:40.552Z,58.56
2017-05-26T09:14:50.903Z,57.71
2017-05-26T09:16:01.277Z,57.64
2017-05-26T09:17:11.340Z,57.84
2017-05-26T09:18:21.437Z,58.51
2017-05-26T09:19:31.810Z,59.56
2017-05-26T09:20:42.167Z,59.46
2017-05-26T09:21:52.228Z,59.36
2017-05-26T09:23:02.602Z,59.36
2017-05-26T09:24:12.977Z,58.97
2017-05-26T09:25:23.027Z,58.71
2017-05-26T09:26:33.074Z,59.46
2017-05-26T09:27:43.429Z,59.82
2017-05-26T09:28:53.785Z,60.5
2017-05-26T09:30:04.400Z,60.96
2017-05-26T09:31:14.761Z,61.22
2017-05-26T09:32:24.815Z,59.76
2017-05-26T09:33:35.175Z,60.38
2017-05-26T09:34:45.226Z,59.86
2017-05-26T09:35:55.581Z,59.31
2017-05-26T09:37:05.636Z,59.01
2017-05-26T09:38:16.021Z,58.85
2017-05-26T09:39:26.402Z,58.29
2017-05-26T09:40:36.752Z,57.64
2017-05-26T09:41:47.104Z,58.71
2017-05-26T09:42:57.453Z,58.71
2017-05-26T09:44:07.502Z,59.56
2017-05-26T09:45:17.910Z,59.36
2017-05-26T09:46:28.269Z,59.85
2017-05-26T09:47:38.688Z,59.33
2017-05-26T09:48:49.058Z,58.78
2017-05-26T09:49:58.790Z,58.51
2017-05-26T09:51:09.146Z,58.32
2017-05-26T09:52:18.881Z,58.32
2017-05-26T09:53:29.241Z,58.91
2017-05-26T09:54:39.013Z,59.36
2017-05-26T09:55:49.044Z,59.07
2017-05-26T09:56:59.408Z,58.87
2017-05-26T09:58:09.765Z,58.97
2017-05-26T09:59:22.877Z,59.27
2017-05-26T10:00:33.248Z,58.71
2017-05-26T10:01:43.668Z,58.51
2017-05-26T10:02:54.033Z,58.35
2017-05-26T10:04:04.070Z,58.25
2017-05-26T10:05:14.192Z,58.54
2017-05-26T10:06:24.557Z,57.89
2017-05-26T10:07:34.602Z,57.79
2017-05-26T10:08:44.954Z,59.06
2017-05-26T10:09:55.316Z,59.88
2017-05-26T10:11:05.727Z,59.2
2017-05-26T10:12:15.767Z,59.69
2017-05-26T10:13:26.132Z,59.39
2017-05-26T10:14:36.192Z,59.39
2017-05-26T10:15:46.793Z,59
2017-05-26T10:16:56.836Z,58.22
2017-05-26T10:18:07.193Z,57.96
2017-05-26T10:19:17.551Z,57.5
2017-05-26T10:20:27.595Z,57.26
2017-05-26T10:21:37.646Z,57.17
2017-05-26T10:22:48.064Z,58.63
2017-05-26T10:23:58.205Z,58.8
2017-05-26T10:25:08.571Z,58.58
2017-05-26T10:26:18.943Z,58.58
2017-05-26T10:27:29.312Z,57.89
2017-05-26T10:28:39.156Z,58.73
2017-05-26T10:29:49.511Z,58.5
2017-05-26T10:30:59.876Z,58.12
2017-05-26T10:32:10.237Z,58.6
2017-05-26T10:33:19.970Z,58.58
2017-05-26T10:34:30.380Z,59.16
2017-05-26T10:35:40.742Z,59.64
2017-05-26T10:36:51.114Z,59.62
2017-05-26T10:38:01.488Z,59.35
2017-05-26T10:39:11.856Z,59.52
2017-05-26T10:40:22.272Z,59.03
2017-05-26T10:41:32.322Z,59.33
2017-05-26T10:42:42.692Z,58.45
2017-05-26T10:43:52.733Z,58.67
2017-05-26T10:45:03.102Z,57.92
2017-05-26T10:46:13.508Z,57.46
2017-05-26T10:47:23.859Z,57.17
2017-05-26T10:48:33.903Z,57.49
2017-05-26T10:49:44.261Z,57.98
2017-05-26T10:50:54.305Z,57.78
2017-05-26T10:52:04.789Z,58.86
2017-05-26T10:53:14.837Z,59.12
2017-05-26T10:54:25.210Z,59.28
2017-05-26T10:55:35.568Z,59.45
2017-05-26T10:56:46.004Z,58.48
2017-05-26T10:57:56.362Z,58.73
2017-05-26T10:59:06.724Z,59.58
2017-05-26T11:00:16.822Z,59.94
2017-05-26T11:01:27.166Z,60
2017-05-26T11:02:37.523Z,59.81
2017-05-26T11:03:47.571Z,59.88
2017-05-26T11:04:57.926Z,59.49
2017-05-26T11:06:08.335Z,59.03
2017-05-26T11:07:18.699Z,58.64
2017-05-26T11:08:29.052Z,58.38
2017-05-26T11:09:38.794Z,57.82
2017-05-26T11:10:49.159Z,57.07
2017-05-26T11:11:59.518Z,58.27
2017-05-26T11:13:09.266Z,58.37
2017-05-26T11:14:19.321Z,58.83
2017-05-26T11:15:29.682Z,59.22
2017-05-26T11:16:40.036Z,59.48
2017-05-26T11:17:50.451Z,59.97
2017-05-26T11:19:00.178Z,60.59
2017-05-26T11:20:10.558Z,60.95
2017-05-26T11:21:20.907Z,61.21
2017-05-26T11:22:31.282Z,60.92
2017-05-26T11:23:41.690Z,60.14
2017-05-26T11:24:52.056Z,60.08
2017-05-26T11:26:02.424Z,60.56
2017-05-26T11:27:12.787Z,59.39
2017-05-26T11:28:23.148Z,58.94
2017-05-26T11:29:33.565Z,57.79
2017-05-26T11:30:43.926Z,58.83
2017-05-26T11:31:54.283Z,59.48
2017-05-26T11:33:04.855Z,59.64
2017-05-26T11:34:15.446Z,59.91
2017-05-26T11:35:25.798Z,59.88
2017-05-26T11:36:36.160Z,59.62
2017-05-26T11:37:46.517Z,59.52
2017-05-26T11:38:56.889Z,59.13
2017-05-26T11:40:07.467Z,58.84
2017-05-26T11:41:16.942Z,58.64
2017-05-26T11:42:27.311Z,58.54
2017-05-26T11:43:37.035Z,58.77
2017-05-26T11:44:47.395Z,58.38
2017-05-26T11:45:57.785Z,57.92
2017-05-26T11:47:07.825Z,57.36
2017-05-26T11:48:18.216Z,58.76
2017-05-26T11:49:28.312Z,59.02
2017-05-26T11:50:38.357Z,59.58
2017-05-26T11:51:48.412Z,59.48
2017-05-26T11:52:58.775Z,59.55
2017-05-26T11:54:09.144Z,58.48
2017-05-26T11:55:19.542Z,58.14
2017-05-26T11:56:29.904Z,58.44
2017-05-26T11:57:40.256Z,58.44
2017-05-26T11:58:50.317Z,58.34
2017-05-26T12:00:00.690Z,57.85
2017-05-26T12:01:11.112Z,58.07
2017-05-26T12:02:21.483Z,58.27
2017-05-26T12:03:31.508Z,58.27
2017-05-26T12:04:41.567Z,58.2
2017-05-26T12:05:51.908Z,57.88
2017-05-26T12:07:02.314Z,58.47
2017-05-26T12:08:12.360Z,58.66
2017-05-26T12:09:22.725Z,58.27
2017-05-26T12:10:33.080Z,58.86
2017-05-26T12:11:43.438Z,58.01
2017-05-26T12:12:53.176Z,58.72
2017-05-26T12:14:03.540Z,58.86
2017-05-26T12:15:13.582Z,58.86
2017-05-26T12:16:23.648Z,58.3
2017-05-26T12:17:33.675Z,57.64
2017-05-26T12:18:43.487Z,58.03
2017-05-26T12:19:53.850Z,58.13
2017-05-26T12:21:04.272Z,57.93
2017-05-26T12:22:14.628Z,58.62
2017-05-26T12:23:24.678Z,58.72
2017-05-26T12:24:35.082Z,60.03
2017-05-26T12:25:45.132Z,60.97
2017-05-26T12:26:55.169Z,61.3
2017-05-26T12:28:05.731Z,61.4
2017-05-26T12:29:15.760Z,60.49
2017-05-26T12:30:26.156Z,59.55
2017-05-26T12:31:36.541Z,58.7
2017-05-26T12:32:46.590Z,58.53
2017-05-26T12:33:56.949Z,57.88
2017-05-26T12:35:07.301Z,57.71
2017-05-26T12:36:17.650Z,57.15
2017-05-26T12:37:28.014Z,57.38
2017-05-26T12:38:38.370Z,57.97
2017-05-26T12:39:48.720Z,57.84
2017-05-26T12:40:59.101Z,58.03
2017-05-26T12:42:09.142Z,59.4
2017-05-26T12:43:18.882Z,60.03
2017-05-26T12:44:28.941Z,59.51
2017-05-26T12:45:38.986Z,59.51
2017-05-26T12:46:49.347Z,59.51
2017-05-26T12:47:59.517Z,59.22
2017-05-26T12:49:09.890Z,58.92
2017-05-26T12:50:19.944Z,59.41
2017-05-26T12:51:30.008Z,59.15
2017-05-26T12:52:40.058Z,59.51
2017-05-26T12:53:50.457Z,58.76
2017-05-26T12:55:00.816Z,58.56
2017-05-26T12:56:11.184Z,58.5
2017-05-26T12:57:21.541Z,59.77
2017-05-26T12:58:31.595Z,60.1
2017-05-26T12:59:41.993Z,60.68
2017-05-26T13:00:52.353Z,61.01
2017-05-26T13:02:02.722Z,61.27
2017-05-26T13:03:13.079Z,60.91
2017-05-26T13:04:23.476Z,60.33
2017-05-26T13:05:33.582Z,60.13
2017-05-26T13:06:44.179Z,60.13
2017-05-26T13:07:54.523Z,60.1
2017-05-26T13:09:04.892Z,60.13
2017-05-26T13:10:14.622Z,59.55
2017-05-26T13:11:24.661Z,59.55
2017-05-26T13:12:35.017Z,58.7
2017-05-26T13:13:45.382Z,58.7
2017-05-26T13:14:55.754Z,58.92
2017-05-26T13:16:06.126Z,58.53
2017-05-26T13:17:16.244Z,57.88
2017-05-26T13:18:26.307Z,57.91
2017-05-26T13:19:36.679Z,57.15
2017-05-26T13:20:47.052Z,57.38
2017-05-26T13:21:57.417Z,57.48
2017-05-26T13:23:07.518Z,58.36
2017-05-26T13:24:17.247Z,58.62
2017-05-26T13:25:27.624Z,58.13
2017-05-26T13:26:37.969Z,58.03
2017-05-26T13:27:48.313Z,57.97
2017-05-26T13:28:58.665Z,58.55
2017-05-26T13:30:09.029Z,58.72
2017-05-26T13:31:19.088Z,59.08
2017-05-26T13:32:29.452Z,59.77
2017-05-26T13:33:38.869Z,59.47
2017-05-26T13:34:49.232Z,59.57
2017-05-26T13:35:59.613Z,59.83
2017-05-26T13:37:09.367Z,59.64
2017-05-26T13:38:19.735Z,59.54
2017-05-26T13:39:30.102Z,59.38
2017-05-26T13:40:40.464Z,58.79
2017-05-26T13:41:50.825Z,58.89
2017-05-26T13:43:00.867Z,58.79
2017-05-26T13:44:11.230Z,58.72
2017-05-26T13:45:21.723Z,58.33
2017-05-26T13:46:31.760Z,58.16
2017-05-26T13:47:41.792Z,57.97
2017-05-26T13:48:52.148Z,58.06
2017-05-26T13:50:02.195Z,57.89
2017-05-26T13:51:12.254Z,57.63
2017-05-26T13:52:22.619Z,57.73
2017-05-26T13:53:32.972Z,58.31
2017-05-26T13:54:43.024Z,58.22
2017-05-26T13:55:53.387Z,58.41
2017-05-26T13:57:03.421Z,58.41
2017-05-26T13:58:13.782Z,58.02
2017-05-26T13:59:24.138Z,58.12
2017-05-26T14:00:34.510Z,58.68
2017-05-26T14:01:44.895Z,59.56
2017-05-26T14:02:55.258Z,60.45
2017-05-26T14:04:05.669Z,60.13
2017-05-26T14:05:16.037Z,60.52
2017-05-26T14:06:26.406Z,60.97
2017-05-26T14:07:36.471Z,61.01
2017-05-26T14:08:46.516Z,61.01
2017-05-26T14:09:56.622Z,60.72
2017-05-26T14:11:07.000Z,60.98
2017-05-26T14:12:17.361Z,60.88
2017-05-26T14:13:27.715Z,61.34
2017-05-26T14:14:37.452Z,59.91
2017-05-26T14:15:47.501Z,60.06
2017-05-26T14:16:57.550Z,60.33
2017-05-26T14:18:07.598Z,60.03
2017-05-26T14:19:17.666Z,59.94
2017-05-26T14:20:28.007Z,59.45
2017-05-26T14:21:38.042Z,58.8
2017-05-26T14:22:48.093Z,58.34
2017-05-26T14:23:58.475Z,58.66
2017-05-26T14:25:08.524Z,58.37
2017-05-26T14:26:18.561Z,58.47
2017-05-26T14:27:28.297Z,59.64
2017-05-26T14:28:38.339Z,60.13
2017-05-26T14:29:48.777Z,60.94
2017-05-26T14:30:59.139Z,61.3
2017-05-26T14:32:09.508Z,60.82
2017-05-26T14:33:19.898Z,60.06
2017-05-26T14:34:30.257Z,61.3
2017-05-26T14:35:40.643Z,60.91
2017-05-26T14:36:50.996Z,60.95
2017-05-26T14:38:00.102Z,60.56
2017-05-26T14:39:10.149Z,59.81
2017-05-26T14:40:20.243Z,59.35
2017-05-26T14:41:30.299Z,59.48
2017-05-26T14:42:40.350Z,59.09
2017-05-26T14:43:50.723Z,59.19
2017-05-26T14:45:00.762Z,59.12
2017-05-26T14:46:11.118Z,58.37
2017-05-26T14:47:21.491Z,59.64
2017-05-26T14:48:31.848Z,60
2017-05-26T14:49:41.898Z,60
2017-05-26T14:50:52.272Z,59.97
2017-05-26T14:52:02.636Z,60.75
2017-05-26T14:53:12.995Z,60.82
2017-05-26T14:54:23.277Z,60.06
2017-05-26T14:55:33.689Z,60.13
2017-05-26T14:56:44.043Z,59.67
2017-05-26T14:57:53.462Z,59.61
2017-05-26T14:59:03.520Z,59.41
2017-05-26T15:00:13.776Z,59.61
2017-05-26T15:01:23.823Z,59.7
2017-05-26T15:02:34.183Z,59.7
2017-05-26T15:03:44.553Z,59.64
2017-05-26T15:04:54.914Z,59.18
2017-05-26T15:06:04.978Z,59.38
2017-05-26T15:07:15.352Z,58.89
2017-05-26T15:08:25.727Z,59.28
2017-05-26T15:09:35.394Z,60.22
2017-05-26T15:10:45.773Z,60.68
2017-05-26T15:11:56.141Z,61.07
2017-05-26T15:13:06.195Z,60.94
2017-05-26T15:14:16.234Z,60.91
2017-05-26T15:15:26.267Z,61.6
2017-05-26T15:16:36.634Z,60.98
2017-05-26T15:17:46.678Z,61.57
2017-05-26T15:18:56.791Z,61.08
2017-05-26T15:20:06.867Z,61.34
2017-05-26T15:21:17.247Z,61.15
2017-05-26T15:22:27.288Z,60.95
2017-05-26T15:23:37.676Z,61.44
2017-05-26T15:24:48.059Z,60.36
2017-05-26T15:25:58.414Z,60.59
2017-05-26T15:27:08.465Z,60.78
2017-05-26T15:28:18.859Z,60.39
2017-05-26T15:29:29.260Z,59.74
2017-05-26T15:30:39.631Z,60.03
2017-05-26T15:31:49.683Z,59.94
2017-05-26T15:33:00.035Z,59.77
2017-05-26T15:34:10.073Z,59.77
2017-05-26T15:35:20.423Z,59.48
2017-05-26T15:36:30.771Z,59.8
2017-05-26T15:37:41.139Z,59.51